x

New London Ledge Ct - Ledge Light Weather Station (ldlc3) Weather Station

10:45 - Fri 28th Nov 2014 All times are EST. -5 hours from GMT.

  • Wind
    23mph, 28mph gusts
  • Ar Temp 36°f
  • Sea Pressure 1018mb
  • New London Ledge Ct - Ledge Light Weather Station
  • New London Ledge Ct - Ledge Light Weather Station

More Historic Weather Station data

Upgrade to MSW Pro to gain access to the past 30 days of data for over 8000 Wavebouys and Weather Stations around the globe.

Join Pro

Comparision Forecast

View Surf forecast
   
Sex 11/28 10:45 23 28 mph 1018mb 36f
10:30 24 31 mph 1018mb 35f
10:15 25 32 mph 1017.9mb 35f
10:00 23 29 mph 1018mb 35f
9:45 24 31 mph 1017.9mb 34f
9:30 21 25 mph 1017.6mb 35f
9:15 20 23 mph 1017.6mb 34f
9:00 17 23 mph 1017.7mb 35f
8:45 17 22 mph 1017.9mb 34f
8:30 14 17 mph 1017.8mb 34f
8:15 14 16 mph 1017.6mb 33f
8:00 16 18 mph 1017.4mb 33f
7:45 17 22 mph 1017.4mb 33f
7:30 16 21 mph 1017.3mb 32f
7:15 17 23 mph 1016.8mb 32f
7:00 15 20 mph 1016.8mb 32f
6:45 16 23 mph 1016.5mb 32f
6:30 17 22 mph 1016.4mb 32f
6:15 16 20 mph 1016.3mb 32f
6:00 16 21 mph 1016.1mb 33f
5:45 16 21 mph 1015.7mb 33f
5:30 16 22 mph 1015.4mb 33f
5:15 17 20 mph 1015.3mb 33f
5:00 18 25 mph 1015.2mb 33f
4:45 18 24 mph 1015.1mb 33f
4:30 17 21 mph 1015.1mb 33f
4:15 17 21 mph 1015.1mb 33f
4:00 15 18 mph 1015.1mb 33f
3:45 16 20 mph 1015.1mb 33f
3:30 15 18 mph 1015.2mb 33f
3:15 14 16 mph 1015.2mb 33f
3:00 14 17 mph 1015.2mb 34f
2:45 15 18 mph 1015mb 33f
2:30 14 16 mph 1014.9mb 33f
2:15 13 16 mph 1015mb 33f
2:00 13 15 mph 1015mb 34f
1:45 10 14 mph 1015.1mb 33f
1:30 10 13 mph 1015mb 33f
1:15 13 15 mph 1015mb 34f
1:00 13 17 mph 1015mb 34f
12:45 14 17 mph 1014.9mb 34f
12:30 15 20 mph 1014.9mb 34f
12:15 16 23 mph 1014.9mb 34f
12:00 20 23 mph 1014.9mb 34f
Qui 11/27 6:45 11 14 mph 1014.8mb 35f
6:30 10 14 mph 1014.8mb 35f
6:15 10 14 mph 1014.7mb 35f
6:00 11 14 mph 1014.6mb 35f
5:45 11 14 mph 1014.5mb 35f
5:30 14 16 mph 1014.4mb 36f
5:15 16 18 mph 1014.1mb 36f
5:00 15 17 mph 1014.1mb 37f
4:45 13 15 mph 1014mb 37f
4:30 13 15 mph 1013.9mb 37f
4:15 10 13 mph 1013.9mb 38f
4:00 9 13 mph 1013.9mb 38f
3:45 11 15 mph 1013.7mb 38f
3:30 11 14 mph 1013.5mb 38f
3:15 10 13 mph 1013.4mb 39f
3:00 9 11 mph 1013.3mb 39f
2:45 10 13 mph 1013.1mb 39f
2:30 10 14 mph 1013.1mb 39f
2:15 9 11 mph 1013mb 39f
2:00 8 10 mph 1013mb 40f
1:45 7 8 mph 1013.2mb 39f
1:30 5 7 mph 1013.3mb 39f
1:15 7 9 mph 1013.3mb 39f
1:00 7 8 mph 1013.4mb 40f
12:45 7 8 mph 1013.4mb 40f
12:30 7 8 mph 1013.4mb 40f
12:15 7 9 mph 1013.5mb 40f
12:00 8 9 mph 1013.5mb 39f
11:45 9 11 mph 1013.3mb 39f
11:30 10 13 mph 1013.2mb 39f
11:15 11 13 mph 1013.3mb 39f
11:00 11 14 mph 1013.5mb 39f
10:45 11 14 mph 1013.5mb 39f
10:30 13 16 mph 1013.6mb 38f
10:15 10 14 mph 1013.9mb 39f
10:00 10 14 mph 1013.9mb 38f
9:45 8 11 mph 1014mb 38f
9:30 9 11 mph 1014.1mb 37f
9:15 7 9 mph 1014.1mb 36f
9:00 8 10 mph 1014.1mb 36f
8:45 9 10 mph 1013.8mb 36f
8:30 10 11 mph 1013.7mb 36f
8:15 10 11 mph 1013.5mb 36f
8:00 9 11 mph 1013.4mb 36f
7:45 9 11 mph 1013mb 36f
7:30 8 9 mph 1012.5mb 35f
7:15 7 9 mph 1012.3mb 35f
7:00 10 16 mph 1011.8mb 35f
6:45 10 11 mph 1011.3mb 35f
6:30 10 11 mph 1010.9mb 35f
6:15 10 15 mph 1010.7mb 35f
6:00 9 11 mph 1010.8mb 35f
5:45 10 13 mph 1010.6mb 35f
5:30 10 13 mph 1010.2mb 35f
5:15 9 11 mph 1010.2mb 35f
5:00 10 13 mph 1010mb 35f
4:45 9 10 mph 1010.2mb 35f
4:30 9 13 mph 1009.6mb 35f
4:15 10 13 mph 1009.4mb 35f
4:00 11 15 mph 1009.1mb 36f
3:45 13 16 mph 1009.1mb 36f
3:30 13 16 mph 1009.1mb 36f
3:15 14 17 mph 1008.8mb 36f
3:00 15 21 mph 1008.3mb 36f
2:45 17 22 mph 1008mb 37f
2:30 21 25 mph 1007.4mb 37f
2:15 20 24 mph 1007.4mb 36f
2:00 21 25 mph 1006.9mb 36f
1:45 22 25 mph 1006.7mb 36f
1:30 23 30 mph 1006.2mb 36f
1:15 22 26 mph 1005.9mb 36f
1:00 23 29 mph 1005.1mb 36f
12:45 26 32 mph 1005mb 36f
12:30 25 32 mph 1004.8mb 36f
12:15 25 30 mph 1004.5mb 37f
12:00 28 34 mph 1004mb 37f
Qua 11/26 6:45 28 37 mph 1001.5mb 38f
6:30 24 34 mph 1002.4mb 38f
6:15 24 34 mph 1003mb 38f
6:00 24 33 mph 1003.3mb 38f
5:45 23 32 mph 1005.9mb 38f
5:30 22 32 mph 1006.4mb 38f
5:15 18 31 mph 1007mb 38f
5:00 24 32 mph 1007.3mb 38f
4:45 24 37 mph 1006.9mb 38f
4:30 20 25 mph 1008.4mb 38f
4:15 21 31 mph 1007.3mb 38f
4:00 24 31 mph 1007.9mb 37f
3:45 23 32 mph 1009.5mb 38f
3:30 17 26 mph 1009.8mb 37f
3:15 22 26 mph 1011.6mb 37f
3:00 24 31 mph 1011mb 37f
2:45 24 33 mph 1010.7mb 37f
2:30 24 30 mph 1013.5mb 37f
2:15 25 30 mph 1012.8mb 37f
2:00 24 30 mph 1013.8mb 37f
1:45 24 29 mph 1013.9mb 38f
1:30 22 24 mph 1014.3mb 38f
1:15 21 24 mph 1014.4mb 37f
1:00 23 28 mph 1013.8mb 37f
12:45 20 23 mph 1015.4mb 38f
12:30 18 24 mph 1014.7mb 37f
12:15 18 23 mph 1015mb 38f
12:00 20 25 mph 1016.4mb 38f
11:45 18 22 mph 1018mb 39f
11:30 17 21 mph 1018.1mb 39f
11:15 14 18 mph 1018.9mb 40f
11:00 13 16 mph 1018.4mb 40f
10:45 13 16 mph 1018.9mb 40f
10:30 13 15 mph 1019.8mb 40f
10:15 9 14 mph 1019.4mb 40f
10:00 11 14 mph 1019mb 40f
9:45 11 16 mph 1018.6mb 40f
9:30 11 16 mph 1018.9mb 40f
9:15 8 11 mph 1019.7mb 41f
9:00 10 15 mph 1019.9mb 41f
8:45 10 16 mph 1019.7mb 42f
8:30 9 14 mph 1020.9mb 43f
8:15 13 16 mph 1020.6mb 44f
8:00 17 21 mph 1020.4mb 45f
7:45 17 21 mph 1020.1mb 45f
7:30 16 20 mph 1019.1mb 45f
7:15 14 17 mph 1019.6mb 45f
7:00 10 14 mph 1019.8mb 46f
6:45 15 18 mph 1019.3mb 46f
6:30 16 21 mph 1019.6mb 46f
6:15 18 23 mph 1019.6mb 46f
6:00 21 25 mph 1019.5mb 46f
5:45 17 18 mph 1019.5mb 46f
5:30 16 20 mph 1019.7mb 47f
5:15 18 22 mph 1019.4mb 47f
5:00 17 22 mph 1019.6mb 47f
4:45 14 20 mph 1019.8mb 47f
4:30 16 21 mph 1020.1mb 48f
4:15 18 21 mph 1020.7mb 48f
4:00 15 18 mph 1021.2mb 48f
3:45 13 16 mph 1021.3mb 48f
3:30 13 14 mph 1021.2mb 48f
3:15 9 10 mph 1021.2mb 48f
3:00 9 10 mph 1020.8mb 48f
2:45 7
mph
1020.9mb 49f
2:30 1 2 mph 1021.3mb 49f
2:15 6 7 mph 1020.7mb 49f
2:00 7 8 mph 1020.8mb 49f
1:45 6 7 mph 1020.4mb 49f
1:30 8 9 mph 1019.9mb 49f
1:15 7 8 mph 1020mb 49f
1:00 7
mph
1020.1mb 49f
12:45 7 9 mph 1019.6mb 49f
12:30 8 10 mph 1019.6mb 50f
12:15 10 13 mph 1020.1mb 50f
12:00 9 11 mph 1019.9mb 50f
Ter 11/25 6:45 16 20 mph 1015.8mb 52f
6:30 15 17 mph 1015.8mb 52f
6:15 15 17 mph 1015.7mb 52f
6:00 14 18 mph 1015.6mb 52f
5:45 15 17 mph 1015.5mb 52f
5:30 16 18 mph 1015.7mb 53f
5:15 17 20 mph 1015.4mb 53f
5:00 18 20 mph 1014.9mb 53f
4:45 20 22 mph 1014.5mb 53f
4:30 21 23 mph 1014.3mb 53f
4:15 21 24 mph 1014.4mb 53f
4:00 20 22 mph 1014mb 53f
3:45 18 20 mph 1013.7mb 53f
3:30 17 20 mph 1013.4mb 53f
3:15 18 21 mph 1013.3mb 53f
3:00 18 22 mph 1013.3mb 54f
2:45 20 22 mph 1013.1mb 54f
2:30 20 22 mph 1013.5mb 54f
2:15 20 22 mph 1013.1mb 54f
2:00 21 23 mph 1013mb 54f
1:45 20 21 mph 1013.1mb 55f
1:30 17 20 mph 1013.2mb 54f
1:15 16 18 mph 1013.3mb 54f
1:00 16 17 mph 1013mb 54f
12:45 16 18 mph 1013mb 54f
12:30 14 16 mph 1012.9mb 54f
12:15 16 18 mph 1013mb 54f
12:00 18 21 mph 1013.1mb 55f
11:45 20 21 mph 1013.3mb 55f
11:30 18 20 mph 1013mb 55f
11:15 18 21 mph 1012.9mb 56f
11:00 17 20 mph 1013.1mb 56f
10:45 17 21 mph 1013.1mb 56f
10:30 18 23 mph 1012.7mb 57f
10:15 17 18 mph 1012.5mb 55f
10:00 17 18 mph 1012.5mb 55f
9:45 15 17 mph 1012.5mb 55f
9:30 15 16 mph 1012.5mb 55f
9:15 14 16 mph 1012.2mb 55f
9:00 14 16 mph 1012.1mb 56f
8:45 16
mph
1011.8mb 57f
8:30 14 16 mph 1011.6mb 58f
8:15 14 17 mph 1011.4mb 57f
8:00 13 15 mph 1011.2mb 57f
7:45 15 17 mph 1011.2mb 57f
7:30 16 20 mph 1011.1mb 58f
7:15 16 18 mph 1010.9mb 58f
7:00 14 16 mph 1010.5mb 57f
6:45 14 17 mph 1010.5mb 57f
6:30 11 13 mph 1010.4mb 56f
6:15 13 15 mph 1010.1mb 57f
6:00 13 15 mph 1010mb 57f
5:45 14 16 mph 1009.8mb 57f
5:30 16 18 mph 1009.3mb 57f
5:15 14 17 mph 1009.3mb 57f
5:00 16 18 mph 1009.5mb 56f
4:45 15 20 mph 1009.2mb 56f
4:30 16 17 mph 1008.8mb 56f
4:15 11 14 mph 1008.5mb 56f
4:00 10 13 mph 1008.4mb 56f
3:45 14 16 mph 1008.5mb 56f
3:30 14 15 mph 1007.4mb 56f
3:15 10 15 mph 1007.6mb 56f
3:00 13 15 mph 1007.8mb 56f
2:45 11 15 mph 1007.8mb 56f
2:30 11 16 mph 1007.5mb 56f
2:15 14 16 mph 1007.4mb 55f
2:00 18 22 mph 1007.2mb 56f
1:45 16 20 mph 1007mb 55f
1:30 22 25 mph 1006.8mb 55f
1:15 28 31 mph 1006.8mb 56f
1:00 25 30 mph 1006.9mb 56f
12:45 16 22 mph 1007.1mb 55f
12:30 9 10 mph 1007.2mb 55f
12:15 9 10 mph 1006.7mb 56f
12:00 8 10 mph 1006.7mb 56f
Seg 11/24 6:45 18 22 mph 1005.2mb 57f
6:30 22 25 mph 1004.7mb 58f
6:15 25 30 mph 1004.3mb 58f
6:00 28 33 mph 1004mb 59f
5:45 25 29 mph 1004mb 58f
5:30 28 33 mph 1004mb 59f
5:15 15 21 mph 1004.3mb 58f
5:00 17 21 mph 1004mb 57f
4:45 18 21 mph 1003.5mb 58f
4:30 18 21 mph 1003.6mb 58f